sensor_id;sensor_type;location;lat;lon;timestamp;P1;durP1;ratioP1;P2;durP2;ratioP2
62696;SDS011;48761;42.680;23.312;2022-10-23T00:01:35;28.75;;;17.25;;
62696;SDS011;48761;42.680;23.312;2022-10-23T00:04:04;26.27;;;16.90;;
62696;SDS011;48761;42.680;23.312;2022-10-23T00:06:31;23.83;;;15.88;;
62696;SDS011;48761;42.680;23.312;2022-10-23T00:08:58;26.27;;;16.52;;
62696;SDS011;48761;42.680;23.312;2022-10-23T00:11:28;27.08;;;16.58;;
62696;SDS011;48761;42.680;23.312;2022-10-23T00:13:56;27.95;;;16.98;;
62696;SDS011;48761;42.680;23.312;2022-10-23T00:16:24;28.92;;;17.45;;
62696;SDS011;48761;42.680;23.312;2022-10-23T00:18:50;26.85;;;17.15;;
62696;SDS011;48761;42.680;23.312;2022-10-23T00:21:16;32.33;;;17.70;;
62696;SDS011;48761;42.680;23.312;2022-10-23T00:23:43;29.45;;;17.80;;
62696;SDS011;48761;42.680;23.312;2022-10-23T00:26:09;29.52;;;18.15;;
62696;SDS011;48761;42.680;23.312;2022-10-23T00:28:36;30.00;;;17.73;;
62696;SDS011;48761;42.680;23.312;2022-10-23T00:31:03;32.90;;;18.38;;
62696;SDS011;48761;42.680;23.312;2022-10-23T00:33:30;28.48;;;18.25;;
62696;SDS011;48761;42.680;23.312;2022-10-23T00:35:57;28.92;;;17.67;;
62696;SDS011;48761;42.680;23.312;2022-10-23T00:38:22;28.10;;;18.33;;
62696;SDS011;48761;42.680;23.312;2022-10-23T00:40:48;27.50;;;17.77;;
62696;SDS011;48761;42.680;23.312;2022-10-23T00:43:18;28.30;;;17.67;;
62696;SDS011;48761;42.680;23.312;2022-10-23T00:45:47;31.95;;;18.00;;
62696;SDS011;48761;42.680;23.312;2022-10-23T00:48:13;28.10;;;16.98;;
62696;SDS011;48761;42.680;23.312;2022-10-23T00:50:39;29.13;;;17.25;;
62696;SDS011;48761;42.680;23.312;2022-10-23T00:53:07;29.17;;;18.58;;
62696;SDS011;48761;42.680;23.312;2022-10-23T00:55:36;26.52;;;17.52;;
62696;SDS011;48761;42.680;23.312;2022-10-23T00:58:03;26.80;;;16.73;;
62696;SDS011;48761;42.680;23.312;2022-10-23T01:00:38;27.30;;;18.05;;
62696;SDS011;48761;42.680;23.312;2022-10-23T01:03:07;28.75;;;18.05;;
62696;SDS011;48761;42.680;23.312;2022-10-23T01:05:35;27.33;;;18.52;;
62696;SDS011;48761;42.680;23.312;2022-10-23T01:08:10;31.00;;;19.80;;
62696;SDS011;48761;42.680;23.312;2022-10-23T01:10:55;34.53;;;20.15;;
62696;SDS011;48761;42.680;23.312;2022-10-23T01:13:39;38.30;;;25.70;;
62696;SDS011;48761;42.680;23.312;2022-10-23T01:19:00;49.15;;;29.13;;
62696;SDS011;48761;42.680;23.312;2022-10-23T01:21:48;54.10;;;33.58;;
62696;SDS011;48761;42.680;23.312;2022-10-23T01:24:29;59.88;;;34.40;;
62696;SDS011;48761;42.680;23.312;2022-10-23T01:30:07;55.42;;;33.78;;
62696;SDS011;48761;42.680;23.312;2022-10-23T01:35:16;57.90;;;34.05;;
62696;SDS011;48761;42.680;23.312;2022-10-23T01:37:43;55.13;;;33.70;;
62696;SDS011;48761;42.680;23.312;2022-10-23T01:40:14;54.60;;;33.78;;
62696;SDS011;48761;42.680;23.312;2022-10-23T01:43:10;56.92;;;34.35;;
62696;SDS011;48761;42.680;23.312;2022-10-23T01:45:39;64.03;;;34.90;;
62696;SDS011;48761;42.680;23.312;2022-10-23T01:48:11;50.05;;;32.83;;
62696;SDS011;48761;42.680;23.312;2022-10-23T01:50:40;48.45;;;31.55;;
62696;SDS011;48761;42.680;23.312;2022-10-23T01:53:08;46.70;;;31.30;;
62696;SDS011;48761;42.680;23.312;2022-10-23T01:55:34;48.83;;;32.08;;
62696;SDS011;48761;42.680;23.312;2022-10-23T01:58:03;50.85;;;29.95;;
62696;SDS011;48761;42.680;23.312;2022-10-23T02:00:31;48.90;;;29.58;;
62696;SDS011;48761;42.680;23.312;2022-10-23T02:02:58;54.63;;;30.38;;
62696;SDS011;48761;42.680;23.312;2022-10-23T02:05:26;49.25;;;29.10;;
62696;SDS011;48761;42.680;23.312;2022-10-23T02:07:53;53.03;;;29.60;;
62696;SDS011;48761;42.680;23.312;2022-10-23T02:10:20;46.30;;;29.10;;
62696;SDS011;48761;42.680;23.312;2022-10-23T02:12:54;43.13;;;27.55;;
62696;SDS011;48761;42.680;23.312;2022-10-23T02:15:33;44.70;;;27.08;;
62696;SDS011;48761;42.680;23.312;2022-10-23T02:20:47;44.22;;;25.77;;
62696;SDS011;48761;42.680;23.312;2022-10-23T02:23:36;45.70;;;27.02;;
62696;SDS011;48761;42.680;23.312;2022-10-23T02:28:43;44.85;;;25.63;;
62696;SDS011;48761;42.680;23.312;2022-10-23T02:31:24;39.67;;;25.70;;
62696;SDS011;48761;42.680;23.312;2022-10-23T02:33:50;50.30;;;26.25;;
62696;SDS011;48761;42.680;23.312;2022-10-23T02:36:17;38.38;;;24.38;;
62696;SDS011;48761;42.680;23.312;2022-10-23T02:38:44;35.20;;;23.67;;
62696;SDS011;48761;42.680;23.312;2022-10-23T02:44:10;35.20;;;22.88;;
62696;SDS011;48761;42.680;23.312;2022-10-23T02:47:08;29.77;;;21.15;;
62696;SDS011;48761;42.680;23.312;2022-10-23T02:55:20;34.95;;;21.92;;
62696;SDS011;48761;42.680;23.312;2022-10-23T02:58:00;40.55;;;22.77;;
62696;SDS011;48761;42.680;23.312;2022-10-23T03:00:27;32.83;;;21.70;;
62696;SDS011;48761;42.680;23.312;2022-10-23T03:03:00;33.75;;;21.33;;
62696;SDS011;48761;42.680;23.312;2022-10-23T03:08:06;32.15;;;20.80;;
62696;SDS011;48761;42.680;23.312;2022-10-23T03:10:33;34.88;;;22.25;;
62696;SDS011;48761;42.680;23.312;2022-10-23T03:13:00;33.30;;;21.60;;
62696;SDS011;48761;42.680;23.312;2022-10-23T03:15:26;34.35;;;21.00;;
62696;SDS011;48761;42.680;23.312;2022-10-23T03:17:52;33.25;;;20.65;;
62696;SDS011;48761;42.680;23.312;2022-10-23T03:20:18;31.42;;;20.10;;
62696;SDS011;48761;42.680;23.312;2022-10-23T03:22:44;35.67;;;21.33;;
62696;SDS011;48761;42.680;23.312;2022-10-23T03:25:10;34.95;;;21.42;;
62696;SDS011;48761;42.680;23.312;2022-10-23T03:27:36;28.70;;;20.40;;
62696;SDS011;48761;42.680;23.312;2022-10-23T03:30:02;32.75;;;20.55;;
62696;SDS011;48761;42.680;23.312;2022-10-23T03:32:29;31.55;;;20.38;;
62696;SDS011;48761;42.680;23.312;2022-10-23T03:34:55;32.35;;;20.05;;
62696;SDS011;48761;42.680;23.312;2022-10-23T03:37:21;31.38;;;19.75;;
62696;SDS011;48761;42.680;23.312;2022-10-23T03:39:47;32.08;;;20.05;;
62696;SDS011;48761;42.680;23.312;2022-10-23T03:42:13;35.92;;;20.65;;
62696;SDS011;48761;42.680;23.312;2022-10-23T03:44:39;30.42;;;19.67;;
62696;SDS011;48761;42.680;23.312;2022-10-23T03:47:05;30.80;;;20.25;;
62696;SDS011;48761;42.680;23.312;2022-10-23T03:49:31;32.53;;;20.65;;
62696;SDS011;48761;42.680;23.312;2022-10-23T03:51:57;34.47;;;20.08;;
62696;SDS011;48761;42.680;23.312;2022-10-23T03:54:24;30.00;;;19.63;;
62696;SDS011;48761;42.680;23.312;2022-10-23T03:56:51;31.55;;;20.52;;
62696;SDS011;48761;42.680;23.312;2022-10-23T03:59:18;30.08;;;19.67;;
62696;SDS011;48761;42.680;23.312;2022-10-23T04:01:44;35.85;;;20.95;;
62696;SDS011;48761;42.680;23.312;2022-10-23T04:04:11;33.65;;;20.05;;
62696;SDS011;48761;42.680;23.312;2022-10-23T04:06:37;35.00;;;19.40;;
62696;SDS011;48761;42.680;23.312;2022-10-23T04:09:03;27.42;;;19.55;;
62696;SDS011;48761;42.680;23.312;2022-10-23T04:11:29;32.78;;;18.35;;
62696;SDS011;48761;42.680;23.312;2022-10-23T04:13:56;27.50;;;17.08;;
62696;SDS011;48761;42.680;23.312;2022-10-23T04:16:22;25.48;;;15.70;;
62696;SDS011;48761;42.680;23.312;2022-10-23T04:18:48;25.05;;;15.20;;
62696;SDS011;48761;42.680;23.312;2022-10-23T04:21:14;26.83;;;14.63;;
62696;SDS011;48761;42.680;23.312;2022-10-23T04:23:40;24.67;;;13.63;;
62696;SDS011;48761;42.680;23.312;2022-10-23T04:26:07;21.60;;;12.05;;
62696;SDS011;48761;42.680;23.312;2022-10-23T04:28:33;22.73;;;12.25;;
62696;SDS011;48761;42.680;23.312;2022-10-23T04:30:59;18.80;;;10.65;;
62696;SDS011;48761;42.680;23.312;2022-10-23T04:33:25;15.50;;;10.20;;
62696;SDS011;48761;42.680;23.312;2022-10-23T04:35:51;17.80;;;10.25;;
62696;SDS011;48761;42.680;23.312;2022-10-23T04:38:17;17.60;;;9.27;;
62696;SDS011;48761;42.680;23.312;2022-10-23T04:40:43;17.20;;;8.70;;
62696;SDS011;48761;42.680;23.312;2022-10-23T04:43:09;17.25;;;7.72;;
62696;SDS011;48761;42.680;23.312;2022-10-23T04:45:35;13.23;;;7.10;;
62696;SDS011;48761;42.680;23.312;2022-10-23T04:48:01;19.77;;;7.50;;
62696;SDS011;48761;42.680;23.312;2022-10-23T04:50:26;17.20;;;7.70;;
62696;SDS011;48761;42.680;23.312;2022-10-23T04:52:53;16.05;;;7.55;;
62696;SDS011;48761;42.680;23.312;2022-10-23T04:55:20;14.88;;;7.25;;
62696;SDS011;48761;42.680;23.312;2022-10-23T04:57:46;18.92;;;8.02;;
62696;SDS011;48761;42.680;23.312;2022-10-23T05:00:13;12.52;;;6.47;;
62696;SDS011;48761;42.680;23.312;2022-10-23T05:02:39;13.60;;;7.20;;
62696;SDS011;48761;42.680;23.312;2022-10-23T05:05:05;14.48;;;7.38;;
62696;SDS011;48761;42.680;23.312;2022-10-23T05:07:33;22.08;;;11.93;;
62696;SDS011;48761;42.680;23.312;2022-10-23T05:09:59;25.20;;;12.00;;
62696;SDS011;48761;42.680;23.312;2022-10-23T05:12:25;21.55;;;11.73;;
62696;SDS011;48761;42.680;23.312;2022-10-23T05:14:52;20.00;;;10.70;;
62696;SDS011;48761;42.680;23.312;2022-10-23T05:17:19;19.80;;;11.48;;
62696;SDS011;48761;42.680;23.312;2022-10-23T05:19:54;18.75;;;10.55;;
62696;SDS011;48761;42.680;23.312;2022-10-23T05:22:23;18.40;;;11.73;;
62696;SDS011;48761;42.680;23.312;2022-10-23T05:24:52;21.35;;;12.40;;
62696;SDS011;48761;42.680;23.312;2022-10-23T05:27:18;24.77;;;12.85;;
62696;SDS011;48761;42.680;23.312;2022-10-23T05:29:44;21.25;;;11.05;;
62696;SDS011;48761;42.680;23.312;2022-10-23T05:32:11;18.58;;;10.10;;
62696;SDS011;48761;42.680;23.312;2022-10-23T05:34:39;25.02;;;9.85;;
62696;SDS011;48761;42.680;23.312;2022-10-23T05:37:06;15.20;;;8.65;;
62696;SDS011;48761;42.680;23.312;2022-10-23T05:39:35;27.13;;;9.40;;
62696;SDS011;48761;42.680;23.312;2022-10-23T05:42:01;17.63;;;8.85;;
62696;SDS011;48761;42.680;23.312;2022-10-23T05:44:27;21.25;;;10.00;;
62696;SDS011;48761;42.680;23.312;2022-10-23T05:46:53;20.70;;;9.65;;
62696;SDS011;48761;42.680;23.312;2022-10-23T05:49:19;16.45;;;8.35;;
62696;SDS011;48761;42.680;23.312;2022-10-23T05:51:45;15.18;;;7.88;;
62696;SDS011;48761;42.680;23.312;2022-10-23T05:54:11;13.50;;;7.03;;
62696;SDS011;48761;42.680;23.312;2022-10-23T05:56:37;15.13;;;7.40;;
62696;SDS011;48761;42.680;23.312;2022-10-23T05:59:04;10.05;;;7.13;;
62696;SDS011;48761;42.680;23.312;2022-10-23T06:01:30;14.38;;;7.22;;
62696;SDS011;48761;42.680;23.312;2022-10-23T06:03:57;18.15;;;8.02;;
62696;SDS011;48761;42.680;23.312;2022-10-23T06:06:23;13.57;;;7.20;;
62696;SDS011;48761;42.680;23.312;2022-10-23T06:08:49;12.45;;;6.75;;
62696;SDS011;48761;42.680;23.312;2022-10-23T06:11:15;13.77;;;6.97;;
62696;SDS011;48761;42.680;23.312;2022-10-23T06:13:41;12.02;;;6.65;;
62696;SDS011;48761;42.680;23.312;2022-10-23T06:16:09;15.10;;;7.35;;
62696;SDS011;48761;42.680;23.312;2022-10-23T06:18:46;13.48;;;7.70;;
62696;SDS011;48761;42.680;23.312;2022-10-23T06:21:12;13.82;;;7.28;;
62696;SDS011;48761;42.680;23.312;2022-10-23T06:23:39;12.60;;;7.05;;
62696;SDS011;48761;42.680;23.312;2022-10-23T06:26:07;13.77;;;8.45;;
62696;SDS011;48761;42.680;23.312;2022-10-23T06:28:34;12.93;;;6.43;;
62696;SDS011;48761;42.680;23.312;2022-10-23T06:31:08;14.40;;;6.82;;
62696;SDS011;48761;42.680;23.312;2022-10-23T06:33:36;10.57;;;6.72;;
62696;SDS011;48761;42.680;23.312;2022-10-23T06:36:02;15.52;;;6.30;;
62696;SDS011;48761;42.680;23.312;2022-10-23T06:38:28;12.55;;;6.63;;
62696;SDS011;48761;42.680;23.312;2022-10-23T06:40:55;13.68;;;6.90;;
62696;SDS011;48761;42.680;23.312;2022-10-23T06:43:21;14.43;;;7.05;;
62696;SDS011;48761;42.680;23.312;2022-10-23T06:45:47;11.85;;;6.80;;
62696;SDS011;48761;42.680;23.312;2022-10-23T06:48:14;9.18;;;6.28;;
62696;SDS011;48761;42.680;23.312;2022-10-23T06:50:40;12.48;;;7.22;;
62696;SDS011;48761;42.680;23.312;2022-10-23T06:53:06;14.32;;;6.72;;
62696;SDS011;48761;42.680;23.312;2022-10-23T06:55:32;12.35;;;6.57;;
62696;SDS011;48761;42.680;23.312;2022-10-23T06:57:58;11.77;;;7.15;;
62696;SDS011;48761;42.680;23.312;2022-10-23T07:00:24;11.60;;;7.13;;
62696;SDS011;48761;42.680;23.312;2022-10-23T07:02:51;13.10;;;7.30;;
62696;SDS011;48761;42.680;23.312;2022-10-23T07:05:18;12.15;;;6.40;;
62696;SDS011;48761;42.680;23.312;2022-10-23T07:07:45;12.30;;;6.43;;
62696;SDS011;48761;42.680;23.312;2022-10-23T07:10:10;14.75;;;7.22;;
62696;SDS011;48761;42.680;23.312;2022-10-23T07:12:36;16.75;;;6.47;;
62696;SDS011;48761;42.680;23.312;2022-10-23T07:15:02;10.68;;;5.93;;
62696;SDS011;48761;42.680;23.312;2022-10-23T07:17:28;9.60;;;5.93;;
62696;SDS011;48761;42.680;23.312;2022-10-23T07:19:54;11.05;;;6.32;;
62696;SDS011;48761;42.680;23.312;2022-10-23T07:22:20;11.75;;;6.30;;
62696;SDS011;48761;42.680;23.312;2022-10-23T07:24:46;12.45;;;5.95;;
62696;SDS011;48761;42.680;23.312;2022-10-23T07:27:12;10.05;;;5.63;;
62696;SDS011;48761;42.680;23.312;2022-10-23T07:29:38;10.30;;;6.47;;
62696;SDS011;48761;42.680;23.312;2022-10-23T07:32:04;10.73;;;6.82;;
62696;SDS011;48761;42.680;23.312;2022-10-23T07:34:32;12.02;;;5.60;;
62696;SDS011;48761;42.680;23.312;2022-10-23T07:36:58;8.60;;;5.82;;
62696;SDS011;48761;42.680;23.312;2022-10-23T07:39:24;12.30;;;6.97;;
62696;SDS011;48761;42.680;23.312;2022-10-23T07:41:50;16.10;;;6.50;;
62696;SDS011;48761;42.680;23.312;2022-10-23T07:44:16;11.73;;;6.22;;
62696;SDS011;48761;42.680;23.312;2022-10-23T07:46:42;17.08;;;7.18;;
62696;SDS011;48761;42.680;23.312;2022-10-23T07:49:09;17.15;;;6.93;;
62696;SDS011;48761;42.680;23.312;2022-10-23T07:51:35;12.50;;;6.18;;
62696;SDS011;48761;42.680;23.312;2022-10-23T07:54:01;11.25;;;6.15;;
62696;SDS011;48761;42.680;23.312;2022-10-23T07:56:27;17.95;;;6.50;;
62696;SDS011;48761;42.680;23.312;2022-10-23T07:58:53;12.95;;;5.90;;
62696;SDS011;48761;42.680;23.312;2022-10-23T08:01:26;14.63;;;6.07;;
62696;SDS011;48761;42.680;23.312;2022-10-23T08:03:56;9.82;;;5.80;;
62696;SDS011;48761;42.680;23.312;2022-10-23T08:06:23;15.35;;;6.15;;
62696;SDS011;48761;42.680;23.312;2022-10-23T08:08:49;11.25;;;5.10;;
62696;SDS011;48761;42.680;23.312;2022-10-23T08:11:16;12.00;;;5.20;;
62696;SDS011;48761;42.680;23.312;2022-10-23T08:13:44;11.77;;;5.53;;
62696;SDS011;48761;42.680;23.312;2022-10-23T08:16:10;9.90;;;5.20;;
62696;SDS011;48761;42.680;23.312;2022-10-23T08:18:36;10.98;;;5.18;;
62696;SDS011;48761;42.680;23.312;2022-10-23T08:21:02;10.93;;;5.03;;
62696;SDS011;48761;42.680;23.312;2022-10-23T08:23:29;12.40;;;4.80;;
62696;SDS011;48761;42.680;23.312;2022-10-23T08:25:56;11.55;;;4.80;;
62696;SDS011;48761;42.680;23.312;2022-10-23T08:28:23;12.57;;;5.65;;
62696;SDS011;48761;42.680;23.312;2022-10-23T08:30:49;15.60;;;5.57;;
62696;SDS011;48761;42.680;23.312;2022-10-23T08:33:15;10.90;;;4.57;;
62696;SDS011;48761;42.680;23.312;2022-10-23T08:35:41;8.80;;;4.90;;
62696;SDS011;48761;42.680;23.312;2022-10-23T08:38:06;11.95;;;4.78;;
62696;SDS011;48761;42.680;23.312;2022-10-23T08:40:33;13.43;;;5.70;;
62696;SDS011;48761;42.680;23.312;2022-10-23T08:43:23;12.38;;;5.45;;
62696;SDS011;48761;42.680;23.312;2022-10-23T08:46:10;7.47;;;4.95;;
62696;SDS011;48761;42.680;23.312;2022-10-23T08:48:41;8.70;;;4.55;;
62696;SDS011;48761;42.680;23.312;2022-10-23T08:57:19;10.35;;;4.78;;
62696;SDS011;48761;42.680;23.312;2022-10-23T08:59:56;10.27;;;5.15;;
62696;SDS011;48761;42.680;23.312;2022-10-23T09:02:32;8.80;;;5.20;;
62696;SDS011;48761;42.680;23.312;2022-10-23T09:05:03;9.60;;;4.57;;
62696;SDS011;48761;42.680;23.312;2022-10-23T09:07:45;12.05;;;4.45;;
62696;SDS011;48761;42.680;23.312;2022-10-23T09:18:57;6.13;;;3.90;;
62696;SDS011;48761;42.680;23.312;2022-10-23T09:21:27;6.38;;;3.45;;
62696;SDS011;48761;42.680;23.312;2022-10-23T09:23:54;10.95;;;4.05;;
62696;SDS011;48761;42.680;23.312;2022-10-23T09:26:20;8.32;;;3.20;;
62696;SDS011;48761;42.680;23.312;2022-10-23T09:28:47;7.78;;;3.08;;
62696;SDS011;48761;42.680;23.312;2022-10-23T09:31:16;7.32;;;3.72;;
62696;SDS011;48761;42.680;23.312;2022-10-23T09:33:53;8.75;;;4.00;;
62696;SDS011;48761;42.680;23.312;2022-10-23T09:36:24;8.20;;;4.00;;
62696;SDS011;48761;42.680;23.312;2022-10-23T09:38:53;6.55;;;4.03;;
62696;SDS011;48761;42.680;23.312;2022-10-23T09:41:26;6.32;;;4.13;;
62696;SDS011;48761;42.680;23.312;2022-10-23T09:46:42;14.25;;;4.50;;
62696;SDS011;48761;42.680;23.312;2022-10-23T09:49:25;4.93;;;2.80;;
62696;SDS011;48761;42.680;23.312;2022-10-23T10:00:01;8.80;;;2.97;;
62696;SDS011;48761;42.680;23.312;2022-10-23T10:02:57;7.05;;;2.60;;
62696;SDS011;48761;42.680;23.312;2022-10-23T10:05:31;11.18;;;3.15;;
62696;SDS011;48761;42.680;23.312;2022-10-23T10:08:02;6.85;;;3.17;;
62696;SDS011;48761;42.680;23.312;2022-10-23T10:10:36;5.78;;;2.78;;
62696;SDS011;48761;42.680;23.312;2022-10-23T10:16:00;7.03;;;3.30;;
62696;SDS011;48761;42.680;23.312;2022-10-23T10:18:46;6.93;;;3.33;;
62696;SDS011;48761;42.680;23.312;2022-10-23T10:35:04;3.13;;;2.00;;
62696;SDS011;48761;42.680;23.312;2022-10-23T10:40:46;5.80;;;2.58;;
62696;SDS011;48761;42.680;23.312;2022-10-23T10:43:37;4.47;;;2.25;;
62696;SDS011;48761;42.680;23.312;2022-10-23T10:49:37;6.60;;;2.22;;
62696;SDS011;48761;42.680;23.312;2022-10-23T10:54:24;8.07;;;2.33;;
62696;SDS011;48761;42.680;23.312;2022-10-23T10:56:55;6.47;;;2.53;;
62696;SDS011;48761;42.680;23.312;2022-10-23T10:59:23;4.07;;;2.15;;
62696;SDS011;48761;42.680;23.312;2022-10-23T11:04:42;4.93;;;2.63;;
62696;SDS011;48761;42.680;23.312;2022-10-23T11:07:16;5.88;;;2.38;;
62696;SDS011;48761;42.680;23.312;2022-10-23T11:09:46;5.03;;;2.57;;
62696;SDS011;48761;42.680;23.312;2022-10-23T11:12:17;3.58;;;2.10;;
62696;SDS011;48761;42.680;23.312;2022-10-23T11:14:47;7.78;;;2.65;;
62696;SDS011;48761;42.680;23.312;2022-10-23T11:17:19;4.93;;;2.35;;
62696;SDS011;48761;42.680;23.312;2022-10-23T11:20:01;10.93;;;2.55;;
62696;SDS011;48761;42.680;23.312;2022-10-23T11:22:36;7.63;;;2.55;;
62696;SDS011;48761;42.680;23.312;2022-10-23T11:28:25;6.85;;;2.88;;
62696;SDS011;48761;42.680;23.312;2022-10-23T11:31:44;9.18;;;2.70;;
62696;SDS011;48761;42.680;23.312;2022-10-23T11:37:20;8.45;;;2.90;;
62696;SDS011;48761;42.680;23.312;2022-10-23T11:40:00;8.52;;;2.80;;
62696;SDS011;48761;42.680;23.312;2022-10-23T11:48:01;5.10;;;3.03;;
62696;SDS011;48761;42.680;23.312;2022-10-23T11:50:48;10.25;;;2.95;;
62696;SDS011;48761;42.680;23.312;2022-10-23T11:53:26;7.50;;;2.60;;
62696;SDS011;48761;42.680;23.312;2022-10-23T11:56:24;5.75;;;2.33;;
62696;SDS011;48761;42.680;23.312;2022-10-23T12:03:51;3.15;;;2.40;;
62696;SDS011;48761;42.680;23.312;2022-10-23T12:06:26;3.75;;;2.28;;
62696;SDS011;48761;42.680;23.312;2022-10-23T12:09:04;4.53;;;2.30;;
62696;SDS011;48761;42.680;23.312;2022-10-23T12:11:39;6.22;;;2.30;;
62696;SDS011;48761;42.680;23.312;2022-10-23T12:14:25;6.00;;;2.20;;
62696;SDS011;48761;42.680;23.312;2022-10-23T12:16:52;9.52;;;2.58;;
62696;SDS011;48761;42.680;23.312;2022-10-23T12:19:19;2.88;;;2.10;;
62696;SDS011;48761;42.680;23.312;2022-10-23T12:21:56;4.72;;;2.60;;
62696;SDS011;48761;42.680;23.312;2022-10-23T12:24:29;3.78;;;2.42;;
62696;SDS011;48761;42.680;23.312;2022-10-23T12:38:45;5.70;;;2.17;;
62696;SDS011;48761;42.680;23.312;2022-10-23T12:41:13;5.63;;;2.30;;
62696;SDS011;48761;42.680;23.312;2022-10-23T12:43:41;5.78;;;2.38;;
62696;SDS011;48761;42.680;23.312;2022-10-23T12:48:45;4.28;;;2.40;;
62696;SDS011;48761;42.680;23.312;2022-10-23T12:51:19;7.60;;;2.20;;
62696;SDS011;48761;42.680;23.312;2022-10-23T12:53:48;6.22;;;2.60;;
62696;SDS011;48761;42.680;23.312;2022-10-23T12:56:15;5.45;;;2.30;;
62696;SDS011;48761;42.680;23.312;2022-10-23T13:01:24;3.75;;;2.05;;
62696;SDS011;48761;42.680;23.312;2022-10-23T13:03:56;3.72;;;2.13;;
62696;SDS011;48761;42.680;23.312;2022-10-23T13:06:26;13.23;;;2.60;;
62696;SDS011;48761;42.680;23.312;2022-10-23T13:08:53;4.28;;;1.52;;
62696;SDS011;48761;42.680;23.312;2022-10-23T13:11:20;5.63;;;2.47;;
62696;SDS011;48761;42.680;23.312;2022-10-23T13:13:47;3.63;;;1.70;;
62696;SDS011;48761;42.680;23.312;2022-10-23T13:16:14;19.00;;;2.92;;
62696;SDS011;48761;42.680;23.312;2022-10-23T13:18:46;3.63;;;1.98;;
62696;SDS011;48761;42.680;23.312;2022-10-23T13:21:19;4.20;;;1.75;;
62696;SDS011;48761;42.680;23.312;2022-10-23T13:23:47;2.35;;;1.70;;
62696;SDS011;48761;42.680;23.312;2022-10-23T13:26:33;3.30;;;1.77;;
62696;SDS011;48761;42.680;23.312;2022-10-23T13:29:03;7.35;;;2.00;;
62696;SDS011;48761;42.680;23.312;2022-10-23T13:31:46;4.55;;;2.08;;
62696;SDS011;48761;42.680;23.312;2022-10-23T13:34:21;8.25;;;2.20;;
62696;SDS011;48761;42.680;23.312;2022-10-23T13:36:53;4.22;;;2.20;;
62696;SDS011;48761;42.680;23.312;2022-10-23T13:39:22;5.32;;;1.95;;
62696;SDS011;48761;42.680;23.312;2022-10-23T13:42:08;5.53;;;1.95;;
62696;SDS011;48761;42.680;23.312;2022-10-23T13:44:39;4.30;;;1.98;;
62696;SDS011;48761;42.680;23.312;2022-10-23T13:47:09;7.30;;;2.10;;
62696;SDS011;48761;42.680;23.312;2022-10-23T13:49:37;2.78;;;1.73;;
62696;SDS011;48761;42.680;23.312;2022-10-23T13:52:03;3.92;;;2.00;;
62696;SDS011;48761;42.680;23.312;2022-10-23T13:54:29;3.70;;;1.92;;
62696;SDS011;48761;42.680;23.312;2022-10-23T13:56:55;7.68;;;2.08;;
62696;SDS011;48761;42.680;23.312;2022-10-23T13:59:22;4.93;;;2.45;;
62696;SDS011;48761;42.680;23.312;2022-10-23T14:01:48;7.85;;;2.00;;
62696;SDS011;48761;42.680;23.312;2022-10-23T14:04:16;13.82;;;2.47;;
62696;SDS011;48761;42.680;23.312;2022-10-23T14:06:42;5.13;;;2.28;;
62696;SDS011;48761;42.680;23.312;2022-10-23T14:09:13;4.00;;;1.90;;
62696;SDS011;48761;42.680;23.312;2022-10-23T14:11:40;15.05;;;3.03;;
62696;SDS011;48761;42.680;23.312;2022-10-23T14:14:07;4.22;;;2.10;;
62696;SDS011;48761;42.680;23.312;2022-10-23T14:16:33;4.57;;;1.83;;
62696;SDS011;48761;42.680;23.312;2022-10-23T14:18:59;4.15;;;2.70;;
62696;SDS011;48761;42.680;23.312;2022-10-23T14:21:25;4.93;;;2.10;;
62696;SDS011;48761;42.680;23.312;2022-10-23T14:23:51;6.60;;;2.38;;
62696;SDS011;48761;42.680;23.312;2022-10-23T14:26:19;6.97;;;2.58;;
62696;SDS011;48761;42.680;23.312;2022-10-23T14:28:47;4.55;;;2.35;;
62696;SDS011;48761;42.680;23.312;2022-10-23T14:31:14;5.13;;;2.50;;
62696;SDS011;48761;42.680;23.312;2022-10-23T14:33:41;4.47;;;2.25;;
62696;SDS011;48761;42.680;23.312;2022-10-23T14:36:09;5.65;;;2.42;;
62696;SDS011;48761;42.680;23.312;2022-10-23T14:38:35;4.57;;;2.50;;
62696;SDS011;48761;42.680;23.312;2022-10-23T14:41:02;6.30;;;3.00;;
62696;SDS011;48761;42.680;23.312;2022-10-23T14:43:33;6.63;;;2.40;;
62696;SDS011;48761;42.680;23.312;2022-10-23T14:46:06;5.93;;;3.03;;
62696;SDS011;48761;42.680;23.312;2022-10-23T14:48:40;5.05;;;3.05;;
62696;SDS011;48761;42.680;23.312;2022-10-23T14:51:12;10.98;;;3.05;;
62696;SDS011;48761;42.680;23.312;2022-10-23T14:53:41;7.47;;;3.53;;
62696;SDS011;48761;42.680;23.312;2022-10-23T14:56:07;5.97;;;2.97;;
62696;SDS011;48761;42.680;23.312;2022-10-23T14:58:33;5.72;;;2.80;;
62696;SDS011;48761;42.680;23.312;2022-10-23T15:00:59;5.80;;;2.55;;
62696;SDS011;48761;42.680;23.312;2022-10-23T15:03:26;6.45;;;2.65;;
62696;SDS011;48761;42.680;23.312;2022-10-23T15:05:53;9.60;;;2.92;;
62696;SDS011;48761;42.680;23.312;2022-10-23T15:08:20;8.48;;;2.90;;
62696;SDS011;48761;42.680;23.312;2022-10-23T15:10:47;6.28;;;3.08;;
62696;SDS011;48761;42.680;23.312;2022-10-23T15:13:13;10.27;;;3.17;;
62696;SDS011;48761;42.680;23.312;2022-10-23T15:15:39;7.40;;;3.13;;
62696;SDS011;48761;42.680;23.312;2022-10-23T15:18:05;7.20;;;3.40;;
62696;SDS011;48761;42.680;23.312;2022-10-23T15:20:31;5.15;;;3.30;;
62696;SDS011;48761;42.680;23.312;2022-10-23T15:22:57;6.50;;;3.13;;
62696;SDS011;48761;42.680;23.312;2022-10-23T15:25:22;5.63;;;3.03;;
62696;SDS011;48761;42.680;23.312;2022-10-23T15:27:48;5.10;;;2.85;;
62696;SDS011;48761;42.680;23.312;2022-10-23T15:30:14;5.43;;;2.85;;
62696;SDS011;48761;42.680;23.312;2022-10-23T15:32:41;6.88;;;3.08;;
62696;SDS011;48761;42.680;23.312;2022-10-23T15:35:07;11.60;;;3.92;;
62696;SDS011;48761;42.680;23.312;2022-10-23T15:37:34;6.07;;;3.30;;
62696;SDS011;48761;42.680;23.312;2022-10-23T15:40:00;8.10;;;3.55;;
62696;SDS011;48761;42.680;23.312;2022-10-23T15:42:26;5.53;;;3.25;;
62696;SDS011;48761;42.680;23.312;2022-10-23T15:44:52;7.18;;;3.55;;
62696;SDS011;48761;42.680;23.312;2022-10-23T15:47:18;7.10;;;3.10;;
62696;SDS011;48761;42.680;23.312;2022-10-23T15:49:44;5.95;;;3.00;;
62696;SDS011;48761;42.680;23.312;2022-10-23T15:52:10;6.70;;;3.15;;
62696;SDS011;48761;42.680;23.312;2022-10-23T15:54:36;7.28;;;3.20;;
62696;SDS011;48761;42.680;23.312;2022-10-23T15:57:02;5.28;;;2.63;;
62696;SDS011;48761;42.680;23.312;2022-10-23T15:59:28;6.88;;;3.22;;
62696;SDS011;48761;42.680;23.312;2022-10-23T16:01:55;11.63;;;3.55;;
62696;SDS011;48761;42.680;23.312;2022-10-23T16:04:22;4.72;;;2.97;;
62696;SDS011;48761;42.680;23.312;2022-10-23T16:06:47;7.32;;;3.38;;
62696;SDS011;48761;42.680;23.312;2022-10-23T16:09:14;7.90;;;3.22;;
62696;SDS011;48761;42.680;23.312;2022-10-23T16:11:40;5.38;;;2.92;;
62696;SDS011;48761;42.680;23.312;2022-10-23T16:14:08;5.50;;;2.80;;
62696;SDS011;48761;42.680;23.312;2022-10-23T16:16:37;11.60;;;3.53;;
62696;SDS011;48761;42.680;23.312;2022-10-23T16:19:03;10.70;;;3.55;;
62696;SDS011;48761;42.680;23.312;2022-10-23T16:21:34;7.50;;;3.42;;
62696;SDS011;48761;42.680;23.312;2022-10-23T16:24:00;7.22;;;3.42;;
62696;SDS011;48761;42.680;23.312;2022-10-23T16:26:28;11.32;;;3.85;;
62696;SDS011;48761;42.680;23.312;2022-10-23T16:28:55;9.35;;;3.83;;